sensor_id;sensor_type;location;lat;lon;timestamp;P1;durP1;ratioP1;P2;durP2;ratioP2
20069;SDS011;10195;50.868;4.382;2022-12-31T00:01:17;4.40;;;1.30;;
20069;SDS011;10195;50.868;4.382;2022-12-31T00:03:47;1.20;;;1.10;;
20069;SDS011;10195;50.868;4.382;2022-12-31T00:08:47;1.20;;;0.87;;
20069;SDS011;10195;50.868;4.382;2022-12-31T00:11:14;0.80;;;0.80;;
20069;SDS011;10195;50.868;4.382;2022-12-31T00:13:43;3.00;;;0.90;;
20069;SDS011;10195;50.868;4.382;2022-12-31T00:16:14;1.30;;;0.83;;
20069;SDS011;10195;50.868;4.382;2022-12-31T00:18:49;1.20;;;0.90;;
20069;SDS011;10195;50.868;4.382;2022-12-31T00:21:16;0.80;;;0.80;;
20069;SDS011;10195;50.868;4.382;2022-12-31T00:23:47;0.87;;;0.80;;
20069;SDS011;10195;50.868;4.382;2022-12-31T00:26:14;0.90;;;0.80;;
20069;SDS011;10195;50.868;4.382;2022-12-31T00:28:41;3.60;;;0.90;;
20069;SDS011;10195;50.868;4.382;2022-12-31T00:31:10;0.73;;;0.60;;
20069;SDS011;10195;50.868;4.382;2022-12-31T00:33:38;0.70;;;0.70;;
20069;SDS011;10195;50.868;4.382;2022-12-31T00:36:12;1.17;;;0.70;;
20069;SDS011;10195;50.868;4.382;2022-12-31T00:38:43;0.70;;;0.70;;
20069;SDS011;10195;50.868;4.382;2022-12-31T00:41:10;2.20;;;0.60;;
20069;SDS011;10195;50.868;4.382;2022-12-31T00:43:37;0.50;;;0.50;;
20069;SDS011;10195;50.868;4.382;2022-12-31T00:46:03;1.70;;;0.53;;
20069;SDS011;10195;50.868;4.382;2022-12-31T00:48:30;0.80;;;0.60;;
20069;SDS011;10195;50.868;4.382;2022-12-31T00:50:57;1.10;;;0.70;;
20069;SDS011;10195;50.868;4.382;2022-12-31T00:53:23;0.63;;;0.60;;
20069;SDS011;10195;50.868;4.382;2022-12-31T00:55:49;0.87;;;0.60;;
20069;SDS011;10195;50.868;4.382;2022-12-31T00:58:16;0.40;;;0.40;;
20069;SDS011;10195;50.868;4.382;2022-12-31T01:00:41;1.13;;;0.60;;
20069;SDS011;10195;50.868;4.382;2022-12-31T01:03:07;0.90;;;0.50;;
20069;SDS011;10195;50.868;4.382;2022-12-31T01:05:33;0.60;;;0.50;;
20069;SDS011;10195;50.868;4.382;2022-12-31T01:08:00;1.80;;;0.60;;
20069;SDS011;10195;50.868;4.382;2022-12-31T01:10:26;0.57;;;0.57;;
20069;SDS011;10195;50.868;4.382;2022-12-31T01:13:11;0.53;;;0.50;;
20069;SDS011;10195;50.868;4.382;2022-12-31T01:15:37;1.83;;;0.60;;
20069;SDS011;10195;50.868;4.382;2022-12-31T01:18:04;0.63;;;0.40;;
20069;SDS011;10195;50.868;4.382;2022-12-31T01:20:40;3.93;;;0.57;;
20069;SDS011;10195;50.868;4.382;2022-12-31T01:23:07;1.80;;;0.70;;
20069;SDS011;10195;50.868;4.382;2022-12-31T01:25:34;4.00;;;1.00;;
20069;SDS011;10195;50.868;4.382;2022-12-31T01:28:05;1.50;;;0.70;;
20069;SDS011;10195;50.868;4.382;2022-12-31T01:30:31;0.97;;;0.70;;
20069;SDS011;10195;50.868;4.382;2022-12-31T01:32:59;2.40;;;0.90;;
20069;SDS011;10195;50.868;4.382;2022-12-31T01:35:25;1.83;;;0.80;;
20069;SDS011;10195;50.868;4.382;2022-12-31T01:37:51;0.77;;;0.60;;
20069;SDS011;10195;50.868;4.382;2022-12-31T01:40:17;1.17;;;0.60;;
20069;SDS011;10195;50.868;4.382;2022-12-31T01:42:42;3.50;;;0.97;;
20069;SDS011;10195;50.868;4.382;2022-12-31T01:45:10;0.90;;;0.80;;
20069;SDS011;10195;50.868;4.382;2022-12-31T01:47:43;1.10;;;0.60;;
20069;SDS011;10195;50.868;4.382;2022-12-31T01:50:16;4.27;;;1.00;;
20069;SDS011;10195;50.868;4.382;2022-12-31T01:52:57;2.50;;;1.20;;
20069;SDS011;10195;50.868;4.382;2022-12-31T01:55:34;0.57;;;0.50;;
20069;SDS011;10195;50.868;4.382;2022-12-31T01:58:10;1.03;;;0.50;;
20069;SDS011;10195;50.868;4.382;2022-12-31T02:00:44;0.80;;;0.60;;
20069;SDS011;10195;50.868;4.382;2022-12-31T02:03:11;1.57;;;0.77;;
20069;SDS011;10195;50.868;4.382;2022-12-31T02:05:41;0.60;;;0.40;;
20069;SDS011;10195;50.868;4.382;2022-12-31T02:08:18;2.97;;;0.80;;
20069;SDS011;10195;50.868;4.382;2022-12-31T02:10:45;2.83;;;0.70;;
20069;SDS011;10195;50.868;4.382;2022-12-31T02:13:10;1.20;;;0.63;;
20069;SDS011;10195;50.868;4.382;2022-12-31T02:26:42;1.57;;;0.70;;
20069;SDS011;10195;50.868;4.382;2022-12-31T02:32:30;2.57;;;0.53;;
20069;SDS011;10195;50.868;4.382;2022-12-31T02:35:09;3.80;;;0.80;;
20069;SDS011;10195;50.868;4.382;2022-12-31T02:37:39;1.50;;;0.70;;
20069;SDS011;10195;50.868;4.382;2022-12-31T02:40:10;3.53;;;1.20;;
20069;SDS011;10195;50.868;4.382;2022-12-31T02:42:39;5.73;;;0.70;;
20069;SDS011;10195;50.868;4.382;2022-12-31T02:45:04;4.30;;;1.10;;
20069;SDS011;10195;50.868;4.382;2022-12-31T02:50:23;3.83;;;1.00;;
20069;SDS011;10195;50.868;4.382;2022-12-31T02:53:24;5.73;;;0.90;;
20069;SDS011;10195;50.868;4.382;2022-12-31T02:56:03;4.60;;;0.80;;
20069;SDS011;10195;50.868;4.382;2022-12-31T03:01:31;7.40;;;1.40;;
20069;SDS011;10195;50.868;4.382;2022-12-31T03:04:19;6.20;;;1.23;;
20069;SDS011;10195;50.868;4.382;2022-12-31T03:07:08;4.93;;;1.10;;
20069;SDS011;10195;50.868;4.382;2022-12-31T03:09:40;3.57;;;0.90;;
20069;SDS011;10195;50.868;4.382;2022-12-31T03:12:06;5.63;;;1.30;;
20069;SDS011;10195;50.868;4.382;2022-12-31T03:14:53;4.80;;;0.90;;
20069;SDS011;10195;50.868;4.382;2022-12-31T03:17:22;8.33;;;0.80;;
20069;SDS011;10195;50.868;4.382;2022-12-31T03:19:48;3.27;;;1.00;;
20069;SDS011;10195;50.868;4.382;2022-12-31T03:22:34;6.03;;;0.80;;
20069;SDS011;10195;50.868;4.382;2022-12-31T03:27:54;2.50;;;0.90;;
20069;SDS011;10195;50.868;4.382;2022-12-31T03:30:22;4.37;;;1.00;;
20069;SDS011;10195;50.868;4.382;2022-12-31T03:32:57;4.20;;;0.90;;
20069;SDS011;10195;50.868;4.382;2022-12-31T03:35:24;4.00;;;1.00;;
20069;SDS011;10195;50.868;4.382;2022-12-31T03:37:51;3.50;;;1.17;;
20069;SDS011;10195;50.868;4.382;2022-12-31T03:40:18;2.13;;;0.93;;
20069;SDS011;10195;50.868;4.382;2022-12-31T03:42:45;3.67;;;0.90;;
20069;SDS011;10195;50.868;4.382;2022-12-31T03:45:11;2.30;;;0.80;;
20069;SDS011;10195;50.868;4.382;2022-12-31T03:47:37;2.70;;;0.60;;
20069;SDS011;10195;50.868;4.382;2022-12-31T03:50:03;3.97;;;0.87;;
20069;SDS011;10195;50.868;4.382;2022-12-31T03:52:36;2.60;;;1.00;;
20069;SDS011;10195;50.868;4.382;2022-12-31T03:55:02;1.30;;;0.70;;
20069;SDS011;10195;50.868;4.382;2022-12-31T03:57:29;4.37;;;0.90;;
20069;SDS011;10195;50.868;4.382;2022-12-31T03:59:54;3.33;;;1.00;;
20069;SDS011;10195;50.868;4.382;2022-12-31T04:02:20;1.60;;;0.90;;
20069;SDS011;10195;50.868;4.382;2022-12-31T04:04:46;3.90;;;1.10;;
20069;SDS011;10195;50.868;4.382;2022-12-31T04:07:14;5.90;;;1.20;;
20069;SDS011;10195;50.868;4.382;2022-12-31T04:09:40;3.13;;;0.80;;
20069;SDS011;10195;50.868;4.382;2022-12-31T04:12:05;2.00;;;0.70;;
20069;SDS011;10195;50.868;4.382;2022-12-31T04:14:32;1.83;;;0.90;;
20069;SDS011;10195;50.868;4.382;2022-12-31T04:16:57;1.87;;;0.60;;
20069;SDS011;10195;50.868;4.382;2022-12-31T04:19:23;2.93;;;0.70;;
20069;SDS011;10195;50.868;4.382;2022-12-31T04:21:49;4.63;;;0.70;;
20069;SDS011;10195;50.868;4.382;2022-12-31T04:24:20;1.87;;;0.80;;
20069;SDS011;10195;50.868;4.382;2022-12-31T04:26:46;1.53;;;0.60;;
20069;SDS011;10195;50.868;4.382;2022-12-31T04:29:11;2.73;;;0.90;;
20069;SDS011;10195;50.868;4.382;2022-12-31T04:31:38;3.20;;;0.90;;
20069;SDS011;10195;50.868;4.382;2022-12-31T04:34:09;2.17;;;0.60;;
20069;SDS011;10195;50.868;4.382;2022-12-31T04:36:35;2.97;;;0.80;;
20069;SDS011;10195;50.868;4.382;2022-12-31T04:39:00;2.00;;;0.70;;
20069;SDS011;10195;50.868;4.382;2022-12-31T04:41:29;4.27;;;0.83;;
20069;SDS011;10195;50.868;4.382;2022-12-31T04:43:58;4.27;;;0.97;;
20069;SDS011;10195;50.868;4.382;2022-12-31T04:46:24;2.70;;;0.90;;
20069;SDS011;10195;50.868;4.382;2022-12-31T04:48:52;4.80;;;0.90;;
20069;SDS011;10195;50.868;4.382;2022-12-31T04:51:18;1.57;;;1.00;;
20069;SDS011;10195;50.868;4.382;2022-12-31T04:53:45;2.77;;;0.90;;
20069;SDS011;10195;50.868;4.382;2022-12-31T04:56:12;3.10;;;0.90;;
20069;SDS011;10195;50.868;4.382;2022-12-31T04:58:41;3.27;;;0.77;;
20069;SDS011;10195;50.868;4.382;2022-12-31T05:01:07;2.30;;;0.77;;
20069;SDS011;10195;50.868;4.382;2022-12-31T05:03:33;5.13;;;0.83;;
20069;SDS011;10195;50.868;4.382;2022-12-31T05:06:00;4.70;;;1.00;;
20069;SDS011;10195;50.868;4.382;2022-12-31T05:08:29;2.70;;;0.90;;
20069;SDS011;10195;50.868;4.382;2022-12-31T05:10:55;2.87;;;1.00;;
20069;SDS011;10195;50.868;4.382;2022-12-31T05:13:21;4.13;;;0.77;;
20069;SDS011;10195;50.868;4.382;2022-12-31T05:15:47;3.97;;;0.67;;
20069;SDS011;10195;50.868;4.382;2022-12-31T05:18:16;2.47;;;0.70;;
20069;SDS011;10195;50.868;4.382;2022-12-31T05:20:48;3.83;;;0.87;;
20069;SDS011;10195;50.868;4.382;2022-12-31T05:23:14;1.83;;;0.63;;
20069;SDS011;10195;50.868;4.382;2022-12-31T05:25:41;2.67;;;0.80;;
20069;SDS011;10195;50.868;4.382;2022-12-31T05:28:08;4.17;;;0.60;;
20069;SDS011;10195;50.868;4.382;2022-12-31T05:30:34;3.07;;;0.80;;
20069;SDS011;10195;50.868;4.382;2022-12-31T05:33:01;3.47;;;0.90;;
20069;SDS011;10195;50.868;4.382;2022-12-31T05:35:26;4.07;;;0.90;;
20069;SDS011;10195;50.868;4.382;2022-12-31T05:37:52;2.87;;;0.87;;
20069;SDS011;10195;50.868;4.382;2022-12-31T05:40:18;2.90;;;0.70;;
20069;SDS011;10195;50.868;4.382;2022-12-31T05:42:43;6.10;;;0.90;;
20069;SDS011;10195;50.868;4.382;2022-12-31T05:45:12;3.20;;;0.80;;
20069;SDS011;10195;50.868;4.382;2022-12-31T05:47:41;1.93;;;0.83;;
20069;SDS011;10195;50.868;4.382;2022-12-31T05:50:07;3.07;;;0.80;;
20069;SDS011;10195;50.868;4.382;2022-12-31T05:52:34;4.07;;;1.03;;
20069;SDS011;10195;50.868;4.382;2022-12-31T05:55:04;4.47;;;1.30;;
20069;SDS011;10195;50.868;4.382;2022-12-31T05:57:33;2.90;;;0.70;;
20069;SDS011;10195;50.868;4.382;2022-12-31T05:59:58;3.10;;;0.73;;
20069;SDS011;10195;50.868;4.382;2022-12-31T06:02:28;4.70;;;0.63;;
20069;SDS011;10195;50.868;4.382;2022-12-31T06:04:56;6.60;;;1.10;;
20069;SDS011;10195;50.868;4.382;2022-12-31T06:07:25;3.77;;;0.90;;
20069;SDS011;10195;50.868;4.382;2022-12-31T06:09:53;6.93;;;0.93;;
20069;SDS011;10195;50.868;4.382;2022-12-31T06:12:20;4.87;;;0.90;;
20069;SDS011;10195;50.868;4.382;2022-12-31T06:14:46;7.43;;;1.40;;
20069;SDS011;10195;50.868;4.382;2022-12-31T06:17:12;4.33;;;0.80;;
20069;SDS011;10195;50.868;4.382;2022-12-31T06:19:37;3.80;;;1.00;;
20069;SDS011;10195;50.868;4.382;2022-12-31T06:22:03;3.40;;;0.93;;
20069;SDS011;10195;50.868;4.382;2022-12-31T06:24:29;2.70;;;0.97;;
20069;SDS011;10195;50.868;4.382;2022-12-31T06:26:58;5.73;;;1.10;;
20069;SDS011;10195;50.868;4.382;2022-12-31T06:29:24;3.40;;;1.00;;
20069;SDS011;10195;50.868;4.382;2022-12-31T06:31:56;5.53;;;0.90;;
20069;SDS011;10195;50.868;4.382;2022-12-31T06:34:21;6.03;;;1.00;;
20069;SDS011;10195;50.868;4.382;2022-12-31T06:36:48;8.00;;;1.00;;
20069;SDS011;10195;50.868;4.382;2022-12-31T06:39:13;6.07;;;1.00;;
20069;SDS011;10195;50.868;4.382;2022-12-31T06:41:39;6.43;;;1.10;;
20069;SDS011;10195;50.868;4.382;2022-12-31T06:44:07;2.47;;;0.80;;
20069;SDS011;10195;50.868;4.382;2022-12-31T06:46:33;5.03;;;0.93;;
20069;SDS011;10195;50.868;4.382;2022-12-31T06:48:59;3.47;;;0.70;;
20069;SDS011;10195;50.868;4.382;2022-12-31T06:51:24;5.97;;;1.40;;
20069;SDS011;10195;50.868;4.382;2022-12-31T06:53:50;4.63;;;1.17;;
20069;SDS011;10195;50.868;4.382;2022-12-31T06:56:23;4.47;;;1.30;;
20069;SDS011;10195;50.868;4.382;2022-12-31T06:58:52;4.03;;;1.20;;
20069;SDS011;10195;50.868;4.382;2022-12-31T07:06:38;3.60;;;1.20;;
20069;SDS011;10195;50.868;4.382;2022-12-31T07:14:51;6.33;;;0.90;;
20069;SDS011;10195;50.868;4.382;2022-12-31T07:17:29;4.60;;;0.90;;
20069;SDS011;10195;50.868;4.382;2022-12-31T07:20:05;3.20;;;1.00;;
20069;SDS011;10195;50.868;4.382;2022-12-31T07:22:36;3.87;;;1.47;;
20069;SDS011;10195;50.868;4.382;2022-12-31T07:25:02;6.33;;;0.90;;
20069;SDS011;10195;50.868;4.382;2022-12-31T07:30:18;6.93;;;0.97;;
20069;SDS011;10195;50.868;4.382;2022-12-31T07:33:11;4.93;;;1.40;;
20069;SDS011;10195;50.868;4.382;2022-12-31T07:38:59;1.83;;;1.13;;
20069;SDS011;10195;50.868;4.382;2022-12-31T07:47:00;3.20;;;1.23;;
20069;SDS011;10195;50.868;4.382;2022-12-31T07:49:28;5.07;;;1.23;;
20069;SDS011;10195;50.868;4.382;2022-12-31T07:51:55;4.97;;;1.33;;
20069;SDS011;10195;50.868;4.382;2022-12-31T07:54:21;5.70;;;1.20;;
20069;SDS011;10195;50.868;4.382;2022-12-31T07:56:47;4.90;;;1.20;;
20069;SDS011;10195;50.868;4.382;2022-12-31T08:02:20;4.77;;;1.60;;
20069;SDS011;10195;50.868;4.382;2022-12-31T08:10:13;5.27;;;1.00;;
20069;SDS011;10195;50.868;4.382;2022-12-31T08:13:00;3.07;;;1.23;;
20069;SDS011;10195;50.868;4.382;2022-12-31T08:15:28;3.70;;;1.30;;
20069;SDS011;10195;50.868;4.382;2022-12-31T08:17:54;4.53;;;1.27;;
20069;SDS011;10195;50.868;4.382;2022-12-31T08:20:20;5.80;;;1.40;;
20069;SDS011;10195;50.868;4.382;2022-12-31T08:25:31;4.30;;;1.37;;
20069;SDS011;10195;50.868;4.382;2022-12-31T08:33:50;3.20;;;1.50;;
20069;SDS011;10195;50.868;4.382;2022-12-31T08:37:00;5.77;;;1.40;;
20069;SDS011;10195;50.868;4.382;2022-12-31T08:39:38;4.27;;;1.30;;
20069;SDS011;10195;50.868;4.382;2022-12-31T08:50:53;3.73;;;1.20;;
20069;SDS011;10195;50.868;4.382;2022-12-31T08:53:19;3.07;;;1.17;;
20069;SDS011;10195;50.868;4.382;2022-12-31T08:55:45;5.07;;;1.60;;
20069;SDS011;10195;50.868;4.382;2022-12-31T08:58:18;3.63;;;1.50;;
20069;SDS011;10195;50.868;4.382;2022-12-31T09:00:45;6.20;;;1.43;;
20069;SDS011;10195;50.868;4.382;2022-12-31T09:16:11;5.77;;;1.60;;
20069;SDS011;10195;50.868;4.382;2022-12-31T09:18:42;5.70;;;1.60;;
20069;SDS011;10195;50.868;4.382;2022-12-31T09:21:09;6.20;;;1.50;;
20069;SDS011;10195;50.868;4.382;2022-12-31T09:23:37;7.70;;;1.57;;
20069;SDS011;10195;50.868;4.382;2022-12-31T09:31:33;4.93;;;1.60;;
20069;SDS011;10195;50.868;4.382;2022-12-31T09:36:40;5.90;;;1.80;;
20069;SDS011;10195;50.868;4.382;2022-12-31T09:39:30;7.03;;;1.83;;
20069;SDS011;10195;50.868;4.382;2022-12-31T09:53:28;5.60;;;1.77;;
20069;SDS011;10195;50.868;4.382;2022-12-31T09:56:14;9.57;;;2.47;;
20069;SDS011;10195;50.868;4.382;2022-12-31T10:07:19;7.73;;;1.60;;
20069;SDS011;10195;50.868;4.382;2022-12-31T10:10:08;9.87;;;1.67;;
20069;SDS011;10195;50.868;4.382;2022-12-31T10:15:33;16.13;;;2.30;;
20069;SDS011;10195;50.868;4.382;2022-12-31T10:30:21;13.10;;;2.40;;
20069;SDS011;10195;50.868;4.382;2022-12-31T10:41:58;8.23;;;1.90;;
20069;SDS011;10195;50.868;4.382;2022-12-31T11:03:46;10.43;;;1.90;;
20069;SDS011;10195;50.868;4.382;2022-12-31T11:17:48;6.27;;;1.67;;
20069;SDS011;10195;50.868;4.382;2022-12-31T11:28:55;7.07;;;2.03;;
20069;SDS011;10195;50.868;4.382;2022-12-31T11:31:49;9.77;;;2.13;;
20069;SDS011;10195;50.868;4.382;2022-12-31T11:38:03;10.73;;;2.50;;
20069;SDS011;10195;50.868;4.382;2022-12-31T11:48:39;7.90;;;1.63;;
20069;SDS011;10195;50.868;4.382;2022-12-31T11:54:17;11.07;;;2.30;;
20069;SDS011;10195;50.868;4.382;2022-12-31T11:59:46;6.60;;;1.70;;
20069;SDS011;10195;50.868;4.382;2022-12-31T12:02:20;8.70;;;2.20;;
20069;SDS011;10195;50.868;4.382;2022-12-31T12:04:48;9.23;;;2.23;;
20069;SDS011;10195;50.868;4.382;2022-12-31T12:07:14;12.20;;;2.77;;
20069;SDS011;10195;50.868;4.382;2022-12-31T12:09:42;7.80;;;2.40;;
20069;SDS011;10195;50.868;4.382;2022-12-31T12:12:09;15.87;;;4.17;;
20069;SDS011;10195;50.868;4.382;2022-12-31T12:14:37;7.70;;;2.10;;
20069;SDS011;10195;50.868;4.382;2022-12-31T12:17:27;8.33;;;2.13;;
20069;SDS011;10195;50.868;4.382;2022-12-31T12:19:58;12.13;;;2.23;;
20069;SDS011;10195;50.868;4.382;2022-12-31T12:22:29;7.47;;;2.43;;
20069;SDS011;10195;50.868;4.382;2022-12-31T12:25:00;12.30;;;2.60;;
20069;SDS011;10195;50.868;4.382;2022-12-31T12:27:33;5.80;;;2.00;;
20069;SDS011;10195;50.868;4.382;2022-12-31T12:32:59;10.53;;;1.90;;
20069;SDS011;10195;50.868;4.382;2022-12-31T12:35:32;12.40;;;1.80;;
20069;SDS011;10195;50.868;4.382;2022-12-31T12:40:27;5.57;;;1.50;;
20069;SDS011;10195;50.868;4.382;2022-12-31T12:42:54;7.77;;;1.87;;
20069;SDS011;10195;50.868;4.382;2022-12-31T12:45:34;10.13;;;2.30;;
20069;SDS011;10195;50.868;4.382;2022-12-31T12:48:08;12.57;;;2.23;;
20069;SDS011;10195;50.868;4.382;2022-12-31T12:50:44;12.93;;;3.30;;
20069;SDS011;10195;50.868;4.382;2022-12-31T12:53:22;8.87;;;2.10;;
20069;SDS011;10195;50.868;4.382;2022-12-31T12:58:49;12.77;;;2.67;;
20069;SDS011;10195;50.868;4.382;2022-12-31T13:01:41;11.37;;;2.27;;
20069;SDS011;10195;50.868;4.382;2022-12-31T13:20:54;9.00;;;2.27;;
20069;SDS011;10195;50.868;4.382;2022-12-31T13:23:48;19.60;;;2.60;;
20069;SDS011;10195;50.868;4.382;2022-12-31T13:26:25;8.27;;;2.53;;
20069;SDS011;10195;50.868;4.382;2022-12-31T13:28:56;13.93;;;2.30;;
20069;SDS011;10195;50.868;4.382;2022-12-31T13:31:34;14.13;;;2.63;;
20069;SDS011;10195;50.868;4.382;2022-12-31T13:34:04;10.13;;;2.97;;
20069;SDS011;10195;50.868;4.382;2022-12-31T13:36:42;17.37;;;2.80;;
20069;SDS011;10195;50.868;4.382;2022-12-31T13:39:14;8.97;;;2.87;;
20069;SDS011;10195;50.868;4.382;2022-12-31T13:42:13;8.77;;;3.27;;
20069;SDS011;10195;50.868;4.382;2022-12-31T13:44:57;12.13;;;3.33;;
20069;SDS011;10195;50.868;4.382;2022-12-31T13:47:47;10.97;;;2.73;;
20069;SDS011;10195;50.868;4.382;2022-12-31T13:52:56;10.17;;;2.67;;
20069;SDS011;10195;50.868;4.382;2022-12-31T13:58:25;10.40;;;2.33;;
20069;SDS011;10195;50.868;4.382;2022-12-31T14:03:40;8.87;;;2.30;;
20069;SDS011;10195;50.868;4.382;2022-12-31T14:06:28;14.97;;;2.23;;
20069;SDS011;10195;50.868;4.382;2022-12-31T14:09:16;8.03;;;2.57;;
20069;SDS011;10195;50.868;4.382;2022-12-31T14:11:52;11.13;;;3.80;;
20069;SDS011;10195;50.868;4.382;2022-12-31T14:14:47;7.67;;;2.73;;
20069;SDS011;10195;50.868;4.382;2022-12-31T14:25:49;10.60;;;2.30;;
20069;SDS011;10195;50.868;4.382;2022-12-31T14:28:26;10.60;;;2.63;;
20069;SDS011;10195;50.868;4.382;2022-12-31T14:31:01;10.23;;;2.23;;
20069;SDS011;10195;50.868;4.382;2022-12-31T14:39:29;7.70;;;2.37;;
20069;SDS011;10195;50.868;4.382;2022-12-31T14:42:17;7.67;;;2.50;;
20069;SDS011;10195;50.868;4.382;2022-12-31T14:50:46;8.33;;;2.77;;
20069;SDS011;10195;50.868;4.382;2022-12-31T14:53:23;7.57;;;2.83;;
20069;SDS011;10195;50.868;4.382;2022-12-31T14:56:01;6.90;;;2.33;;
20069;SDS011;10195;50.868;4.382;2022-12-31T14:58:35;4.17;;;2.00;;
20069;SDS011;10195;50.868;4.382;2022-12-31T15:01:06;9.07;;;2.40;;
20069;SDS011;10195;50.868;4.382;2022-12-31T15:03:46;7.60;;;2.50;;
20069;SDS011;10195;50.868;4.382;2022-12-31T15:19:51;7.73;;;2.17;;
20069;SDS011;10195;50.868;4.382;2022-12-31T15:27:49;8.17;;;2.20;;
20069;SDS011;10195;50.868;4.382;2022-12-31T15:33:05;10.73;;;2.50;;
20069;SDS011;10195;50.868;4.382;2022-12-31T15:36:09;4.83;;;2.63;;
20069;SDS011;10195;50.868;4.382;2022-12-31T15:38:43;8.23;;;2.20;;
20069;SDS011;10195;50.868;4.382;2022-12-31T15:43:45;7.73;;;3.10;;
20069;SDS011;10195;50.868;4.382;2022-12-31T15:46:17;7.30;;;2.43;;
20069;SDS011;10195;50.868;4.382;2022-12-31T15:48:52;11.63;;;2.50;;
20069;SDS011;10195;50.868;4.382;2022-12-31T15:51:27;10.80;;;2.43;;
20069;SDS011;10195;50.868;4.382;2022-12-31T15:53:57;4.40;;;1.90;;
20069;SDS011;10195;50.868;4.382;2022-12-31T15:56:37;9.27;;;2.70;;
20069;SDS011;10195;50.868;4.382;2022-12-31T15:59:10;5.30;;;2.40;;
20069;SDS011;10195;50.868;4.382;2022-12-31T16:01:39;7.73;;;2.30;;
20069;SDS011;10195;50.868;4.382;2022-12-31T16:04:12;10.87;;;3.00;;
20069;SDS011;10195;50.868;4.382;2022-12-31T16:06:43;9.50;;;2.40;;
20069;SDS011;10195;50.868;4.382;2022-12-31T16:09:19;6.60;;;2.40;;
20069;SDS011;10195;50.868;4.382;2022-12-31T16:11:47;5.17;;;2.70;;
20069;SDS011;10195;50.868;4.382;2022-12-31T16:14:24;9.00;;;2.50;;
20069;SDS011;10195;50.868;4.382;2022-12-31T16:16:58;10.50;;;2.70;;
20069;SDS011;10195;50.868;4.382;2022-12-31T16:22:07;9.60;;;2.60;;
20069;SDS011;10195;50.868;4.382;2022-12-31T16:24:38;13.87;;;3.30;;
20069;SDS011;10195;50.868;4.382;2022-12-31T16:27:04;8.20;;;2.60;;
20069;SDS011;10195;50.868;4.382;2022-12-31T16:29:33;6.97;;;2.00;;
20069;SDS011;10195;50.868;4.382;2022-12-31T16:32:01;7.97;;;2.57;;
20069;SDS011;10195;50.868;4.382;2022-12-31T16:34:27;8.63;;;2.33;;
20069;SDS011;10195;50.868;4.382;2022-12-31T16:36:57;6.73;;;2.63;;
20069;SDS011;10195;50.868;4.382;2022-12-31T16:41:50;8.07;;;2.50;;
20069;SDS011;10195;50.868;4.382;2022-12-31T16:44:23;7.63;;;2.60;;
20069;SDS011;10195;50.868;4.382;2022-12-31T16:46:50;11.37;;;2.73;;
20069;SDS011;10195;50.868;4.382;2022-12-31T16:49:20;7.97;;;2.03;;
20069;SDS011;10195;50.868;4.382;2022-12-31T16:51:46;11.80;;;2.80;;
20069;SDS011;10195;50.868;4.382;2022-12-31T16:54:17;9.60;;;2.90;;
20069;SDS011;10195;50.868;4.382;2022-12-31T16:56:53;11.37;;;2.40;;
20069;SDS011;10195;50.868;4.382;2022-12-31T16:59:32;9.77;;;2.50;;
20069;SDS011;10195;50.868;4.382;2022-12-31T17:02:08;10.17;;;2.83;;
20069;SDS011;10195;50.868;4.382;2022-12-31T17:04:56;10.20;;;2.47;;
20069;SDS011;10195;50.868;4.382;2022-12-31T17:07:31;7.57;;;2.10;;
20069;SDS011;10195;50.868;4.382;2022-12-31T17:12:51;10.13;;;2.83;;
20069;SDS011;10195;50.868;4.382;2022-12-31T17:15:20;10.90;;;2.90;;
20069;SDS011;10195;50.868;4.382;2022-12-31T17:17:50;9.37;;;2.20;;
20069;SDS011;10195;50.868;4.382;2022-12-31T17:20:22;13.00;;;3.40;;
20069;SDS011;10195;50.868;4.382;2022-12-31T17:22:53;10.40;;;2.90;;
20069;SDS011;10195;50.868;4.382;2022-12-31T17:25:33;7.67;;;2.97;;
20069;SDS011;10195;50.868;4.382;2022-12-31T17:35:34;12.43;;;2.60;;
20069;SDS011;10195;50.868;4.382;2022-12-31T17:40:59;8.10;;;2.20;;
20069;SDS011;10195;50.868;4.382;2022-12-31T17:43:32;9.87;;;2.97;;
20069;SDS011;10195;50.868;4.382;2022-12-31T17:46:00;14.17;;;2.67;;
20069;SDS011;10195;50.868;4.382;2022-12-31T17:48:26;11.90;;;3.23;;
20069;SDS011;10195;50.868;4.382;2022-12-31T17:50:57;15.40;;;4.23;;
20069;SDS011;10195;50.868;4.382;2022-12-31T17:53:23;11.20;;;3.90;;
20069;SDS011;10195;50.868;4.382;2022-12-31T17:55:50;10.20;;;2.80;;
20069;SDS011;10195;50.868;4.382;2022-12-31T17:58:34;9.67;;;2.87;;
20069;SDS011;10195;50.868;4.382;2022-12-31T18:01:06;10.30;;;2.70;;
20069;SDS011;10195;50.868;4.382;2022-12-31T18:03:33;12.27;;;3.83;;
20069;SDS011;10195;50.868;4.382;2022-12-31T18:05:59;8.30;;;2.60;;
20069;SDS011;10195;50.868;4.382;2022-12-31T18:08:25;14.60;;;2.80;;
20069;SDS011;10195;50.868;4.382;2022-12-31T18:10:51;15.67;;;3.87;;
20069;SDS011;10195;50.868;4.382;2022-12-31T18:13:19;7.10;;;2.67;;
20069;SDS011;10195;50.868;4.382;2022-12-31T18:15:47;13.30;;;2.70;;
20069;SDS011;10195;50.868;4.382;2022-12-31T18:18:17;10.77;;;3.00;;
20069;SDS011;10195;50.868;4.382;2022-12-31T18:20:47;8.10;;;2.47;;
20069;SDS011;10195;50.868;4.382;2022-12-31T18:23:25;9.57;;;2.13;;
20069;SDS011;10195;50.868;4.382;2022-12-31T18:25:53;13.97;;;2.37;;
20069;SDS011;10195;50.868;4.382;2022-12-31T18:28:19;8.27;;;3.07;;
20069;SDS011;10195;50.868;4.382;2022-12-31T18:30:45;5.57;;;2.50;;
20069;SDS011;10195;50.868;4.382;2022-12-31T18:33:12;15.53;;;3.93;;
20069;SDS011;10195;50.868;4.382;2022-12-31T18:35:43;12.87;;;3.03;;
20069;SDS011;10195;50.868;4.382;2022-12-31T18:38:13;15.70;;;3.43;;
20069;SDS011;10195;50.868;4.382;2022-12-31T18:40:40;16.73;;;3.10;;
20069;SDS011;10195;50.868;4.382;2022-12-31T18:43:14;18.50;;;3.83;;
20069;SDS011;10195;50.868;4.382;2022-12-31T18:45:41;9.67;;;3.07;;
20069;SDS011;10195;50.868;4.382;2022-12-31T18:48:07;10.90;;;2.67;;
20069;SDS011;10195;50.868;4.382;2022-12-31T18:50:33;14.83;;;3.37;;
20069;SDS011;10195;50.868;4.382;2022-12-31T18:52:59;6.23;;;2.60;;
20069;SDS011;10195;50.868;4.382;2022-12-31T18:55:26;13.47;;;2.80;;
20069;SDS011;10195;50.868;4.382;2022-12-31T18:58:00;15.00;;;3.13;;
20069;SDS011;10195;50.868;4.382;2022-12-31T19:00:25;11.23;;;3.30;;
20069;SDS011;10195;50.868;4.382;2022-12-31T19:02:51;11.60;;;3.33;;
20069;SDS011;10195;50.868;4.382;2022-12-31T19:05:21;10.60;;;2.97;;
20069;SDS011;10195;50.868;4.382;2022-12-31T19:07:48;11.10;;;3.23;;
20069;SDS011;10195;50.868;4.382;2022-12-31T19:10:14;8.97;;;2.80;;
20069;SDS011;10195;50.868;4.382;2022-12-31T19:12:41;12.07;;;3.60;;
20069;SDS011;10195;50.868;4.382;2022-12-31T19:15:17;9.63;;;3.20;;
20069;SDS011;10195;50.868;4.382;2022-12-31T19:17:54;13.83;;;2.90;;
20069;SDS011;10195;50.868;4.382;2022-12-31T19:20:20;9.33;;;3.37;;
20069;SDS011;10195;50.868;4.382;2022-12-31T19:22:46;11.97;;;3.70;;
20069;SDS011;10195;50.868;4.382;2022-12-31T19:25:16;13.10;;;3.73;;
20069;SDS011;10195;50.868;4.382;2022-12-31T19:27:46;4.90;;;2.03;;
20069;SDS011;10195;50.868;4.382;2022-12-31T19:30:14;11.60;;;2.83;;
20069;SDS011;10195;50.868;4.382;2022-12-31T19:32:42;9.50;;;3.23;;
20069;SDS011;10195;50.868;4.382;2022-12-31T19:35:08;7.20;;;2.73;;
20069;SDS011;10195;50.868;4.382;2022-12-31T19:37:36;9.13;;;3.10;;
20069;SDS011;10195;50.868;4.382;2022-12-31T19:40:01;8.30;;;3.13;;
20069;SDS011;10195;50.868;4.382;2022-12-31T19:42:27;9.63;;;2.57;;
20069;SDS011;10195;50.868;4.382;2022-12-31T19:44:53;9.37;;;3.93;;
20069;SDS011;10195;50.868;4.382;2022-12-31T19:47:19;8.17;;;2.90;;
20069;SDS011;10195;50.868;4.382;2022-12-31T19:49:44;15.00;;;3.43;;
20069;SDS011;10195;50.868;4.382;2022-12-31T19:52:10;10.53;;;4.03;;
20069;SDS011;10195;50.868;4.382;2022-12-31T19:54:36;14.07;;;3.80;;
20069;SDS011;10195;50.868;4.382;2022-12-31T19:57:01;10.33;;;3.10;;
20069;SDS011;10195;50.868;4.382;2022-12-31T19:59:27;12.13;;;4.10;;